sensor_id;sensor_type;location;lat;lon;timestamp;pressure;altitude;pressure_sealevel;temperature;humidity
39891;BME280;25564;53.312;9.790;2024-02-21T00:02:27;101430.75;;;8.04;83.61
39891;BME280;25564;53.312;9.790;2024-02-21T00:04:59;101434.28;;;8.03;83.81
39891;BME280;25564;53.312;9.790;2024-02-21T00:07:30;101435.28;;;8.00;83.85
39891;BME280;25564;53.312;9.790;2024-02-21T00:10:02;101426.16;;;7.95;83.68
39891;BME280;25564;53.312;9.790;2024-02-21T00:12:34;101433.16;;;7.93;83.99
39891;BME280;25564;53.312;9.790;2024-02-21T00:15:06;101411.75;;;7.91;84.26
39891;BME280;25564;53.312;9.790;2024-02-21T00:17:38;101418.03;;;7.86;84.28
39891;BME280;25564;53.312;9.790;2024-02-21T00:20:09;101418.75;;;7.88;84.25
39891;BME280;25564;53.312;9.790;2024-02-21T00:22:41;101407.50;;;7.89;84.00
39891;BME280;25564;53.312;9.790;2024-02-21T00:25:13;101408.22;;;7.92;84.33
39891;BME280;25564;53.312;9.790;2024-02-21T00:27:44;101402.22;;;7.91;84.39
39891;BME280;25564;53.312;9.790;2024-02-21T00:30:16;101405.66;;;7.92;83.82
39891;BME280;25564;53.312;9.790;2024-02-21T00:32:47;101397.91;;;7.92;84.48
39891;BME280;25564;53.312;9.790;2024-02-21T00:35:19;101384.16;;;7.91;84.33
39891;BME280;25564;53.312;9.790;2024-02-21T00:37:51;101375.50;;;7.92;84.48
39891;BME280;25564;53.312;9.790;2024-02-21T00:40:23;101377.13;;;7.93;84.34
39891;BME280;25564;53.312;9.790;2024-02-21T00:42:54;101379.66;;;7.95;84.50
39891;BME280;25564;53.312;9.790;2024-02-21T00:45:26;101379.44;;;7.98;84.30
39891;BME280;25564;53.312;9.790;2024-02-21T00:47:57;101376.81;;;7.99;84.53
39891;BME280;25564;53.312;9.790;2024-02-21T00:50:29;101362.09;;;8.00;84.33
39891;BME280;25564;53.312;9.790;2024-02-21T00:53:00;101374.13;;;8.01;84.09
39891;BME280;25564;53.312;9.790;2024-02-21T00:55:32;101374.13;;;8.01;84.03
39891;BME280;25564;53.312;9.790;2024-02-21T00:58:04;101374.13;;;8.01;84.48
39891;BME280;25564;53.312;9.790;2024-02-21T01:00:35;101368.75;;;8.04;84.22
39891;BME280;25564;53.312;9.790;2024-02-21T01:03:07;101367.22;;;8.01;84.51
39891;BME280;25564;53.312;9.790;2024-02-21T01:05:39;101365.25;;;8.05;84.60
39891;BME280;25564;53.312;9.790;2024-02-21T01:08:10;101361.84;;;8.04;84.09
39891;BME280;25564;53.312;9.790;2024-02-21T01:10:42;101352.44;;;8.03;84.62
39891;BME280;25564;53.312;9.790;2024-02-21T01:13:14;101354.00;;;8.06;84.43
39891;BME280;25564;53.312;9.790;2024-02-21T01:15:45;101349.66;;;8.06;84.28
39891;BME280;25564;53.312;9.790;2024-02-21T01:18:18;101332.41;;;8.07;84.44
39891;BME280;25564;53.312;9.790;2024-02-21T01:20:49;101332.41;;;8.07;84.43
39891;BME280;25564;53.312;9.790;2024-02-21T01:23:21;101332.41;;;8.07;84.10
39891;BME280;25564;53.312;9.790;2024-02-21T01:25:52;101330.75;;;8.06;84.33
39891;BME280;25564;53.312;9.790;2024-02-21T01:28:24;101330.00;;;8.04;84.12
39891;BME280;25564;53.312;9.790;2024-02-21T01:30:56;101327.41;;;8.04;84.42
39891;BME280;25564;53.312;9.790;2024-02-21T01:33:28;101336.94;;;8.03;84.28
39891;BME280;25564;53.312;9.790;2024-02-21T01:36:02;101324.84;;;8.04;84.37
39891;BME280;25564;53.312;9.790;2024-02-21T01:38:34;101326.59;;;8.03;84.23
39891;BME280;25564;53.312;9.790;2024-02-21T01:41:06;101312.13;;;8.01;84.61
39891;BME280;25564;53.312;9.790;2024-02-21T01:43:37;101310.44;;;8.00;84.21
39891;BME280;25564;53.312;9.790;2024-02-21T01:46:09;101306.13;;;8.00;84.23
39891;BME280;25564;53.312;9.790;2024-02-21T01:48:40;101310.53;;;7.98;84.60
39891;BME280;25564;53.312;9.790;2024-02-21T01:51:12;101301.06;;;7.99;84.25
39891;BME280;25564;53.312;9.790;2024-02-21T01:53:44;101289.97;;;7.97;84.61
39891;BME280;25564;53.312;9.790;2024-02-21T01:56:17;101289.25;;;7.95;84.63
39891;BME280;25564;53.312;9.790;2024-02-21T01:58:48;101291.16;;;7.91;84.35
39891;BME280;25564;53.312;9.790;2024-02-21T02:01:21;101286.00;;;7.91;84.32
39891;BME280;25564;53.312;9.790;2024-02-21T02:03:53;101275.75;;;7.89;84.63
39891;BME280;25564;53.312;9.790;2024-02-21T02:06:25;101276.50;;;7.92;84.23
39891;BME280;25564;53.312;9.790;2024-02-21T02:08:57;101267.19;;;7.89;84.56
39891;BME280;25564;53.312;9.790;2024-02-21T02:11:32;101252.34;;;7.93;84.50
39891;BME280;25564;53.312;9.790;2024-02-21T02:14:03;101242.91;;;7.92;84.26
39891;BME280;25564;53.312;9.790;2024-02-21T02:16:36;101240.16;;;7.95;84.77
39891;BME280;25564;53.312;9.790;2024-02-21T02:19:07;101236.00;;;7.92;84.37
39891;BME280;25564;53.312;9.790;2024-02-21T02:21:49;101227.16;;;7.96;84.41
39891;BME280;25564;53.312;9.790;2024-02-21T02:24:27;101207.50;;;7.94;84.47
39891;BME280;25564;53.312;9.790;2024-02-21T02:30:50;101195.69;;;7.89;84.82
39891;BME280;25564;53.312;9.790;2024-02-21T02:33:22;101204.00;;;7.95;84.44
39891;BME280;25564;53.312;9.790;2024-02-21T02:35:53;101203.16;;;7.94;84.50
39891;BME280;25564;53.312;9.790;2024-02-21T02:38:25;101190.88;;;7.98;84.76
39891;BME280;25564;53.312;9.790;2024-02-21T02:40:56;101190.69;;;8.01;84.64
39891;BME280;25564;53.312;9.790;2024-02-21T02:43:28;101181.94;;;8.03;84.50
39891;BME280;25564;53.312;9.790;2024-02-21T02:45:59;101177.50;;;8.05;84.52
39891;BME280;25564;53.312;9.790;2024-02-21T02:48:31;101172.41;;;8.04;84.34
39891;BME280;25564;53.312;9.790;2024-02-21T02:51:02;101160.22;;;8.06;84.36
39891;BME280;25564;53.312;9.790;2024-02-21T02:53:34;101158.41;;;8.08;84.61
39891;BME280;25564;53.312;9.790;2024-02-21T02:56:05;101138.53;;;8.08;84.57
39891;BME280;25564;53.312;9.790;2024-02-21T02:58:37;101160.78;;;8.11;84.49
39891;BME280;25564;53.312;9.790;2024-02-21T03:01:08;101158.00;;;8.14;84.34
39891;BME280;25564;53.312;9.790;2024-02-21T03:03:39;101165.03;;;8.12;84.41
39891;BME280;25564;53.312;9.790;2024-02-21T03:06:12;101170.19;;;8.12;84.44
39891;BME280;25564;53.312;9.790;2024-02-21T03:08:43;101166.69;;;8.13;84.31
39891;BME280;25564;53.312;9.790;2024-02-21T03:11:14;101177.75;;;8.15;84.62
39891;BME280;25564;53.312;9.790;2024-02-21T03:13:46;101173.53;;;8.14;84.40
39891;BME280;25564;53.312;9.790;2024-02-21T03:16:17;101179.50;;;8.14;84.11
39891;BME280;25564;53.312;9.790;2024-02-21T03:18:49;101175.16;;;8.15;84.08
39891;BME280;25564;53.312;9.790;2024-02-21T03:21:21;101173.53;;;8.14;84.75
39891;BME280;25564;53.312;9.790;2024-02-21T03:23:52;101172.41;;;8.18;84.41
39891;BME280;25564;53.312;9.790;2024-02-21T03:26:24;101195.44;;;8.21;84.49
39891;BME280;25564;53.312;9.790;2024-02-21T03:28:55;101179.03;;;8.22;84.36
39891;BME280;25564;53.312;9.790;2024-02-21T03:31:27;101184.31;;;8.20;84.14
39891;BME280;25564;53.312;9.790;2024-02-21T03:34:03;101186.88;;;8.20;84.40
39891;BME280;25564;53.312;9.790;2024-02-21T03:36:37;101186.78;;;8.22;84.56
39891;BME280;25564;53.312;9.790;2024-02-21T03:39:09;101189.38;;;8.22;84.41
39891;BME280;25564;53.312;9.790;2024-02-21T03:41:40;101191.84;;;8.23;83.96
39891;BME280;25564;53.312;9.790;2024-02-21T03:44:11;101190.94;;;8.24;84.05
39891;BME280;25564;53.312;9.790;2024-02-21T03:46:43;101179.75;;;8.24;83.98
39891;BME280;25564;53.312;9.790;2024-02-21T03:49:14;101183.06;;;8.26;84.15
39891;BME280;25564;53.312;9.790;2024-02-21T03:51:46;101188.25;;;8.26;84.31
39891;BME280;25564;53.312;9.790;2024-02-21T03:54:18;101190.81;;;8.26;84.01
39891;BME280;25564;53.312;9.790;2024-02-21T03:56:50;101186.56;;;8.25;84.36
39891;BME280;25564;53.312;9.790;2024-02-21T03:59:45;101196.19;;;8.23;84.16
39891;BME280;25564;53.312;9.790;2024-02-21T04:02:19;101182.53;;;8.21;84.19
39891;BME280;25564;53.312;9.790;2024-02-21T04:04:51;101190.09;;;8.24;84.56
39891;BME280;25564;53.312;9.790;2024-02-21T04:07:22;101184.94;;;8.24;84.14
39891;BME280;25564;53.312;9.790;2024-02-21T04:09:54;101180.66;;;8.23;84.43
39891;BME280;25564;53.312;9.790;2024-02-21T04:12:25;101179.94;;;8.21;84.44
39891;BME280;25564;53.312;9.790;2024-02-21T04:14:57;101186.78;;;8.22;84.19
39891;BME280;25564;53.312;9.790;2024-02-21T04:17:28;101173.31;;;8.17;83.93
39891;BME280;25564;53.312;9.790;2024-02-21T04:20:04;101173.53;;;8.14;83.71
39891;BME280;25564;53.312;9.790;2024-02-21T04:22:38;101171.31;;;8.08;83.84
39891;BME280;25564;53.312;9.790;2024-02-21T04:25:09;101168.28;;;8.01;83.88
39891;BME280;25564;53.312;9.790;2024-02-21T04:27:41;101155.66;;;7.97;84.42
39891;BME280;25564;53.312;9.790;2024-02-21T04:30:13;101157.69;;;7.92;83.99
39891;BME280;25564;53.312;9.790;2024-02-21T04:32:44;101163.78;;;7.91;84.48
39891;BME280;25564;53.312;9.790;2024-02-21T04:35:16;101157.97;;;7.87;84.33
39891;BME280;25564;53.312;9.790;2024-02-21T04:37:49;101151.44;;;7.81;83.98
39891;BME280;25564;53.312;9.790;2024-02-21T04:40:20;101161.78;;;7.81;84.21
39891;BME280;25564;53.312;9.790;2024-02-21T04:42:52;101154.97;;;7.80;84.49
39891;BME280;25564;53.312;9.790;2024-02-21T04:45:24;101158.28;;;7.82;84.70
39891;BME280;25564;53.312;9.790;2024-02-21T04:47:55;101149.88;;;7.79;84.41
39891;BME280;25564;53.312;9.790;2024-02-21T04:50:26;101142.97;;;7.79;84.80
39891;BME280;25564;53.312;9.790;2024-02-21T04:52:58;101137.78;;;7.79;84.62
39891;BME280;25564;53.312;9.790;2024-02-21T04:55:30;101144.81;;;7.77;84.38
39891;BME280;25564;53.312;9.790;2024-02-21T04:58:02;101142.41;;;7.74;84.20
39891;BME280;25564;53.312;9.790;2024-02-21T05:00:33;101140.88;;;7.72;84.45
39891;BME280;25564;53.312;9.790;2024-02-21T05:03:05;101135.69;;;7.72;84.89
39891;BME280;25564;53.312;9.790;2024-02-21T05:05:36;101132.38;;;7.70;84.46
39891;BME280;25564;53.312;9.790;2024-02-21T05:08:09;101125.38;;;7.72;84.48
39891;BME280;25564;53.312;9.790;2024-02-21T05:10:41;101133.19;;;7.70;84.32
39891;BME280;25564;53.312;9.790;2024-02-21T05:13:13;101128.88;;;7.71;84.62
39891;BME280;25564;53.312;9.790;2024-02-21T05:15:45;101134.88;;;7.71;84.73
39891;BME280;25564;53.312;9.790;2024-02-21T05:18:16;101136.72;;;7.69;84.57
39891;BME280;25564;53.312;9.790;2024-02-21T05:20:48;101127.28;;;7.68;84.85
39891;BME280;25564;53.312;9.790;2024-02-21T05:23:19;101124.72;;;7.68;84.69
39891;BME280;25564;53.312;9.790;2024-02-21T05:25:51;101121.41;;;7.66;84.69
39891;BME280;25564;53.312;9.790;2024-02-21T05:28:22;101129.88;;;7.68;84.64
39891;BME280;25564;53.312;9.790;2024-02-21T05:30:54;101133.41;;;7.67;84.76
39891;BME280;25564;53.312;9.790;2024-02-21T05:33:26;101123.25;;;7.64;84.98
39891;BME280;25564;53.312;9.790;2024-02-21T05:35:57;101128.63;;;7.61;84.75
39891;BME280;25564;53.312;9.790;2024-02-21T05:38:29;101122.63;;;7.61;85.00
39891;BME280;25564;53.312;9.790;2024-02-21T05:41:00;101114.94;;;7.59;84.89
39891;BME280;25564;53.312;9.790;2024-02-21T05:43:32;101110.78;;;7.57;85.27
39891;BME280;25564;53.312;9.790;2024-02-21T05:46:04;101115.94;;;7.57;85.29
39891;BME280;25564;53.312;9.790;2024-02-21T05:48:36;101115.94;;;7.57;85.36
39891;BME280;25564;53.312;9.790;2024-02-21T05:51:10;101115.94;;;7.57;85.15
39891;BME280;25564;53.312;9.790;2024-02-21T05:53:41;101107.47;;;7.55;85.16
39891;BME280;25564;53.312;9.790;2024-02-21T05:56:14;101114.94;;;7.59;85.35
39891;BME280;25564;53.312;9.790;2024-02-21T05:58:45;101114.94;;;7.59;85.14
39891;BME280;25564;53.312;9.790;2024-02-21T06:01:16;101119.19;;;7.60;85.44
39891;BME280;25564;53.312;9.790;2024-02-21T06:03:49;101120.09;;;7.59;85.25
39891;BME280;25564;53.312;9.790;2024-02-21T06:06:21;101120.09;;;7.59;85.00
39891;BME280;25564;53.312;9.790;2024-02-21T06:08:56;101113.28;;;7.58;85.39
39891;BME280;25564;53.312;9.790;2024-02-21T06:11:30;101119.19;;;7.60;85.48
39891;BME280;25564;53.312;9.790;2024-02-21T06:14:02;101121.78;;;7.60;85.36
39891;BME280;25564;53.312;9.790;2024-02-21T06:16:33;101126.94;;;7.60;85.07
39891;BME280;25564;53.312;9.790;2024-02-21T06:19:06;101128.63;;;7.61;85.39
39891;BME280;25564;53.312;9.790;2024-02-21T06:21:40;101128.63;;;7.61;84.91
39891;BME280;25564;53.312;9.790;2024-02-21T06:24:12;101126.78;;;7.63;84.96
39891;BME280;25564;53.312;9.790;2024-02-21T06:26:44;101128.63;;;7.61;85.32
39891;BME280;25564;53.312;9.790;2024-02-21T06:29:16;101126.78;;;7.63;85.05
39891;BME280;25564;53.312;9.790;2024-02-21T06:31:47;101114.94;;;7.59;85.41
39891;BME280;25564;53.312;9.790;2024-02-21T06:34:18;101126.94;;;7.60;85.29
39891;BME280;25564;53.312;9.790;2024-02-21T06:36:50;101121.78;;;7.60;85.16
39891;BME280;25564;53.312;9.790;2024-02-21T06:39:23;101118.28;;;7.61;85.21
39891;BME280;25564;53.312;9.790;2024-02-21T06:41:54;101119.94;;;7.62;85.38
39891;BME280;25564;53.312;9.790;2024-02-21T06:44:29;101125.28;;;7.59;85.15
39891;BME280;25564;53.312;9.790;2024-02-21T06:47:01;101121.59;;;7.63;85.12
39891;BME280;25564;53.312;9.790;2024-02-21T06:49:34;101124.91;;;7.65;85.22
39891;BME280;25564;53.312;9.790;2024-02-21T06:52:06;101109.44;;;7.65;85.63
39891;BME280;25564;53.312;9.790;2024-02-21T06:54:37;101114.50;;;7.67;85.29
39891;BME280;25564;53.312;9.790;2024-02-21T06:57:11;101116.22;;;7.66;85.11
39891;BME280;25564;53.312;9.790;2024-02-21T06:59:42;101116.06;;;7.69;85.18
39891;BME280;25564;53.312;9.790;2024-02-21T07:02:14;101116.06;;;7.69;85.46
39891;BME280;25564;53.312;9.790;2024-02-21T07:04:45;101121.97;;;7.71;85.51
39891;BME280;25564;53.312;9.790;2024-02-21T07:07:18;101121.75;;;7.74;85.34
39891;BME280;25564;53.312;9.790;2024-02-21T07:09:49;101121.00;;;7.72;85.36
39891;BME280;25564;53.312;9.790;2024-02-21T07:12:20;101122.69;;;7.73;85.14
39891;BME280;25564;53.312;9.790;2024-02-21T07:14:52;101120.00;;;7.75;85.45
39891;BME280;25564;53.312;9.790;2024-02-21T07:17:23;101125.06;;;7.76;85.53
39891;BME280;25564;53.312;9.790;2024-02-21T07:19:55;101129.31;;;7.77;85.39
39891;BME280;25564;53.312;9.790;2024-02-21T07:22:28;101131.78;;;7.79;85.22
39891;BME280;25564;53.312;9.790;2024-02-21T07:24:59;101144.72;;;7.79;85.00
39891;BME280;25564;53.312;9.790;2024-02-21T07:27:34;101142.13;;;7.79;85.10
39891;BME280;25564;53.312;9.790;2024-02-21T07:30:06;101140.38;;;7.79;85.32
39891;BME280;25564;53.312;9.790;2024-02-21T07:32:38;101143.69;;;7.81;84.87
39891;BME280;25564;53.312;9.790;2024-02-21T07:35:09;101140.28;;;7.81;85.63
39891;BME280;25564;53.312;9.790;2024-02-21T07:37:44;101133.38;;;7.81;85.36
39891;BME280;25564;53.312;9.790;2024-02-21T07:40:16;101128.94;;;7.83;85.79
39891;BME280;25564;53.312;9.790;2024-02-21T07:42:48;101123.66;;;7.85;85.61
39891;BME280;25564;53.312;9.790;2024-02-21T07:45:22;101133.19;;;7.84;85.24
39891;BME280;25564;53.312;9.790;2024-02-21T07:47:55;101129.88;;;7.82;85.40
39891;BME280;25564;53.312;9.790;2024-02-21T07:50:26;101129.94;;;7.81;85.40
39891;BME280;25564;53.312;9.790;2024-02-21T07:52:58;101124.78;;;7.81;85.30
39891;BME280;25564;53.312;9.790;2024-02-21T07:55:30;101127.19;;;7.84;85.20
39891;BME280;25564;53.312;9.790;2024-02-21T07:58:02;101121.81;;;7.87;85.58
39891;BME280;25564;53.312;9.790;2024-02-21T08:00:34;101128.53;;;7.89;85.73
39891;BME280;25564;53.312;9.790;2024-02-21T08:03:05;101121.91;;;7.85;85.40
39891;BME280;25564;53.312;9.790;2024-02-21T08:05:37;101128.66;;;7.88;85.12
39891;BME280;25564;53.312;9.790;2024-02-21T08:08:08;101119.88;;;7.91;85.48
39891;BME280;25564;53.312;9.790;2024-02-21T08:10:40;101112.75;;;7.94;85.27
39891;BME280;25564;53.312;9.790;2024-02-21T08:13:11;101116.81;;;7.98;85.16
39891;BME280;25564;53.312;9.790;2024-02-21T08:15:42;101108.16;;;7.99;85.34
39891;BME280;25564;53.312;9.790;2024-02-21T08:18:14;101104.72;;;7.99;85.35
39891;BME280;25564;53.312;9.790;2024-02-21T08:20:45;101104.44;;;8.03;85.59
39891;BME280;25564;53.312;9.790;2024-02-21T08:23:18;101105.63;;;8.12;85.51
39891;BME280;25564;53.312;9.790;2024-02-21T08:25:49;101103.66;;;8.15;85.20
39891;BME280;25564;53.312;9.790;2024-02-21T08:28:21;101103.34;;;8.20;85.43
39891;BME280;25564;53.312;9.790;2024-02-21T08:30:52;101104.28;;;8.19;85.72
39891;BME280;25564;53.312;9.790;2024-02-21T08:33:24;101093.53;;;8.25;85.73
39891;BME280;25564;53.312;9.790;2024-02-21T08:35:56;101083.63;;;8.31;85.33
39891;BME280;25564;53.312;9.790;2024-02-21T08:38:28;101094.22;;;8.41;85.60
39891;BME280;25564;53.312;9.790;2024-02-21T08:41:00;101090.91;;;8.39;85.10
39891;BME280;25564;53.312;9.790;2024-02-21T08:43:32;101091.09;;;8.36;85.13
39891;BME280;25564;53.312;9.790;2024-02-21T08:46:05;101099.78;;;8.35;84.97
39891;BME280;25564;53.312;9.790;2024-02-21T08:48:37;101100.72;;;8.34;85.20
39891;BME280;25564;53.312;9.790;2024-02-21T08:51:08;101095.44;;;8.35;84.82
39891;BME280;25564;53.312;9.790;2024-02-21T08:53:40;101099.78;;;8.35;85.19
39891;BME280;25564;53.312;9.790;2024-02-21T08:56:13;101098.84;;;8.36;84.85
39891;BME280;25564;53.312;9.790;2024-02-21T08:58:44;101084.91;;;8.38;85.44
39891;BME280;25564;53.312;9.790;2024-02-21T09:01:17;101090.06;;;8.38;84.90
39891;BME280;25564;53.312;9.790;2024-02-21T09:03:49;101084.69;;;8.41;85.21
39891;BME280;25564;53.312;9.790;2024-02-21T09:06:25;101089.13;;;8.39;85.41
39891;BME280;25564;53.312;9.790;2024-02-21T09:08:59;101085.91;;;8.36;85.35
39891;BME280;25564;53.312;9.790;2024-02-21T09:11:30;101088.31;;;8.39;85.38
39891;BME280;25564;53.312;9.790;2024-02-21T09:14:01;101087.38;;;8.40;85.40
39891;BME280;25564;53.312;9.790;2024-02-21T09:16:35;101099.56;;;8.38;85.43
39891;BME280;25564;53.312;9.790;2024-02-21T09:19:06;101084.28;;;8.35;85.00
39891;BME280;25564;53.312;9.790;2024-02-21T09:21:42;101089.44;;;8.35;84.99
39891;BME280;25564;53.312;9.790;2024-02-21T09:24:14;101092.94;;;8.34;85.24
39891;BME280;25564;53.312;9.790;2024-02-21T09:26:45;101086.94;;;8.33;85.48
39891;BME280;25564;53.312;9.790;2024-02-21T09:29:17;101082.72;;;8.32;84.85
39891;BME280;25564;53.312;9.790;2024-02-21T09:31:53;101084.66;;;8.29;85.23
39891;BME280;25564;53.312;9.790;2024-02-21T09:34:24;101080.22;;;8.31;85.18
39891;BME280;25564;53.312;9.790;2024-02-21T09:36:56;101073.41;;;8.30;84.79
39891;BME280;25564;53.312;9.790;2024-02-21T09:39:27;101072.47;;;8.31;85.08
39891;BME280;25564;53.312;9.790;2024-02-21T09:42:05;101062.88;;;8.33;84.80
39891;BME280;25564;53.312;9.790;2024-02-21T09:44:37;101059.34;;;8.34;84.96
39891;BME280;25564;53.312;9.790;2024-02-21T09:47:17;101060.28;;;8.33;84.82
39891;BME280;25564;53.312;9.790;2024-02-21T09:49:51;101054.91;;;8.36;85.44
39891;BME280;25564;53.312;9.790;2024-02-21T09:52:24;101048.50;;;8.41;85.10
39891;BME280;25564;53.312;9.790;2024-02-21T09:54:58;101052.56;;;8.45;84.94
39891;BME280;25564;53.312;9.790;2024-02-21T09:57:31;101055.47;;;8.53;85.13
39891;BME280;25564;53.312;9.790;2024-02-21T10:00:04;101042.84;;;8.61;85.20
39891;BME280;25564;53.312;9.790;2024-02-21T10:02:39;101051.03;;;8.68;84.94
39891;BME280;25564;53.312;9.790;2024-02-21T10:05:11;101058.25;;;8.76;84.80
39891;BME280;25564;53.312;9.790;2024-02-21T10:07:43;101044.78;;;8.83;84.87
39891;BME280;25564;53.312;9.790;2024-02-21T10:10:16;101049.25;;;8.81;84.73
39891;BME280;25564;53.312;9.790;2024-02-21T10:12:49;101035.09;;;8.87;84.71
39891;BME280;25564;53.312;9.790;2024-02-21T10:15:22;101035.59;;;8.92;85.02
39891;BME280;25564;53.312;9.790;2024-02-21T10:17:59;101035.06;;;8.99;84.54
39891;BME280;25564;53.312;9.790;2024-02-21T10:20:33;101035.38;;;9.07;84.53
39891;BME280;25564;53.312;9.790;2024-02-21T10:23:05;101028.66;;;9.17;84.56
39891;BME280;25564;53.312;9.790;2024-02-21T10:25:40;101037.00;;;9.21;84.95
39891;BME280;25564;53.312;9.790;2024-02-21T10:28:16;101022.13;;;9.24;84.86
39891;BME280;25564;53.312;9.790;2024-02-21T10:30:50;101025.44;;;9.26;84.54
39891;BME280;25564;53.312;9.790;2024-02-21T10:33:23;101029.66;;;9.27;84.25
39891;BME280;25564;53.312;9.790;2024-02-21T10:36:06;101027.06;;;9.27;84.62
39891;BME280;25564;53.312;9.790;2024-02-21T10:38:38;101024.81;;;9.23;84.32
39891;BME280;25564;53.312;9.790;2024-02-21T10:41:13;101021.16;;;9.25;84.47
39891;BME280;25564;53.312;9.790;2024-02-21T10:43:56;101021.81;;;9.29;84.66
39891;BME280;25564;53.312;9.790;2024-02-21T10:46:29;101013.22;;;9.28;84.05
39891;BME280;25564;53.312;9.790;2024-02-21T10:49:46;101022.53;;;9.31;84.19
39891;BME280;25564;53.312;9.790;2024-02-21T10:55:03;101011.34;;;9.30;83.96
39891;BME280;25564;53.312;9.790;2024-02-21T10:57:37;101010.63;;;9.28;83.80
39891;BME280;25564;53.312;9.790;2024-02-21T11:00:09;101007.06;;;9.29;84.26
39891;BME280;25564;53.312;9.790;2024-02-21T11:02:45;101008.94;;;9.27;83.77
39891;BME280;25564;53.312;9.790;2024-02-21T11:05:17;101007.31;;;9.26;83.96
39891;BME280;25564;53.312;9.790;2024-02-21T11:07:49;101013.09;;;9.30;83.61
39891;BME280;25564;53.312;9.790;2024-02-21T11:10:24;101005.13;;;9.33;83.83
39891;BME280;25564;53.312;9.790;2024-02-21T11:13:09;100996.00;;;9.27;83.24
39891;BME280;25564;53.312;9.790;2024-02-21T11:15:40;101010.09;;;9.23;83.47
39891;BME280;25564;53.312;9.790;2024-02-21T11:18:23;101004.19;;;9.21;83.71
39891;BME280;25564;53.312;9.790;2024-02-21T11:20:55;101004.84;;;9.12;83.67
39891;BME280;25564;53.312;9.790;2024-02-21T11:23:27;100992.94;;;9.10;83.43
39891;BME280;25564;53.312;9.790;2024-02-21T11:26:10;100980.44;;;9.04;83.57
39891;BME280;25564;53.312;9.790;2024-02-21T11:29:00;100972.97;;;8.99;83.54
39891;BME280;25564;53.312;9.790;2024-02-21T11:31:44;100980.94;;;8.96;83.34
39891;BME280;25564;53.312;9.790;2024-02-21T11:34:18;100978.59;;;8.93;83.58
39891;BME280;25564;53.312;9.790;2024-02-21T11:36:52;100969.88;;;8.94;83.76
39891;BME280;25564;53.312;9.790;2024-02-21T11:39:25;100971.53;;;8.95;83.50
39891;BME280;25564;53.312;9.790;2024-02-21T11:42:07;100961.69;;;9.00;83.70
39891;BME280;25564;53.312;9.790;2024-02-21T11:44:39;100962.41;;;9.02;83.48
39891;BME280;25564;53.312;9.790;2024-02-21T11:47:11;100956.19;;;9.05;83.61
39891;BME280;25564;53.312;9.790;2024-02-21T11:49:45;100949.97;;;9.07;83.60
39891;BME280;25564;53.312;9.790;2024-02-21T11:52:17;100947.38;;;9.07;83.30
39891;BME280;25564;53.312;9.790;2024-02-21T11:54:54;100937.44;;;9.14;83.58
39891;BME280;25564;53.312;9.790;2024-02-21T11:57:27;100933.09;;;9.14;83.18
39891;BME280;25564;53.312;9.790;2024-02-21T11:59:58;100924.22;;;9.18;83.47
39891;BME280;25564;53.312;9.790;2024-02-21T12:02:34;100929.66;;;9.26;83.54
39891;BME280;25564;53.312;9.790;2024-02-21T12:05:07;100919.91;;;9.30;83.69
39891;BME280;25564;53.312;9.790;2024-02-21T12:07:39;100917.19;;;9.31;83.07
39891;BME280;25564;53.312;9.790;2024-02-21T12:10:12;100913.91;;;9.29;83.20
39891;BME280;25564;53.312;9.790;2024-02-21T12:12:44;100918.88;;;9.32;83.14
39891;BME280;25564;53.312;9.790;2024-02-21T12:15:15;100908.31;;;9.35;83.22
39891;BME280;25564;53.312;9.790;2024-02-21T12:17:49;100917.38;;;9.41;83.39
39891;BME280;25564;53.312;9.790;2024-02-21T12:20:23;100908.59;;;9.55;83.40
39891;BME280;25564;53.312;9.790;2024-02-21T12:22:55;100899.00;;;9.68;83.55
39891;BME280;25564;53.312;9.790;2024-02-21T12:25:28;100899.97;;;9.78;82.89
39891;BME280;25564;53.312;9.790;2024-02-21T12:27:59;100901.63;;;9.79;82.75
39891;BME280;25564;53.312;9.790;2024-02-21T12:30:31;100895.97;;;9.85;82.76
39891;BME280;25564;53.312;9.790;2024-02-21T12:33:05;100894.72;;;10.01;82.71
39891;BME280;25564;53.312;9.790;2024-02-21T12:35:36;100888.25;;;10.18;83.05
39891;BME280;25564;53.312;9.790;2024-02-21T12:38:07;100882.97;;;10.31;82.75
39891;BME280;25564;53.312;9.790;2024-02-21T12:40:39;100876.97;;;10.41;82.53
39891;BME280;25564;53.312;9.790;2024-02-21T12:43:10;100870.75;;;10.55;82.21
39891;BME280;25564;53.312;9.790;2024-02-21T12:45:42;100872.84;;;10.50;81.98
39891;BME280;25564;53.312;9.790;2024-02-21T12:48:13;100865.19;;;10.48;82.14
39891;BME280;25564;53.312;9.790;2024-02-21T12:50:50;100858.81;;;10.41;81.69
39891;BME280;25564;53.312;9.790;2024-02-21T12:53:22;100867.28;;;10.32;81.83
39891;BME280;25564;53.312;9.790;2024-02-21T12:56:03;100851.75;;;10.21;81.57
39891;BME280;25564;53.312;9.790;2024-02-21T12:58:36;100846.56;;;10.21;81.83
39891;BME280;25564;53.312;9.790;2024-02-21T13:01:08;100852.69;;;10.31;82.21
39891;BME280;25564;53.312;9.790;2024-02-21T13:03:40;100831.59;;;10.36;81.90
39891;BME280;25564;53.312;9.790;2024-02-21T13:06:12;100837.84;;;10.33;81.56
39891;BME280;25564;53.312;9.790;2024-02-21T13:08:44;100836.31;;;10.31;81.65
39891;BME280;25564;53.312;9.790;2024-02-21T13:11:17;100832.16;;;10.28;81.55
39891;BME280;25564;53.312;9.790;2024-02-21T13:13:48;100829.84;;;10.25;81.49
39891;BME280;25564;53.312;9.790;2024-02-21T13:16:20;100826.75;;;10.20;81.49
39891;BME280;25564;53.312;9.790;2024-02-21T13:18:51;100828.50;;;10.19;81.25
39891;BME280;25564;53.312;9.790;2024-02-21T13:21:23;100813.56;;;10.23;81.49
39891;BME280;25564;53.312;9.790;2024-02-21T13:23:54;100812.53;;;10.25;81.06
39891;BME280;25564;53.312;9.790;2024-02-21T13:26:27;100801.91;;;10.28;81.56
39891;BME280;25564;53.312;9.790;2024-02-21T13:28:58;100793.19;;;10.30;81.76
39891;BME280;25564;53.312;9.790;2024-02-21T13:31:30;100782.81;;;10.30;81.30
39891;BME280;25564;53.312;9.790;2024-02-21T13:34:01;100790.22;;;10.34;81.51
39891;BME280;25564;53.312;9.790;2024-02-21T13:36:33;100773.25;;;10.41;81.63